createdAt,value
2018-08-28T00:02:17.908Z,68.90
2018-08-28T00:04:48.238Z,68.90
2018-08-28T00:07:18.532Z,68.70
2018-08-28T00:09:49.124Z,68.80
2018-08-28T00:12:19.393Z,68.70
2018-08-28T00:14:50.041Z,68.50
2018-08-28T00:17:20.320Z,68.50
2018-08-28T00:19:50.692Z,68.20
2018-08-28T00:22:20.974Z,68.30
2018-08-28T00:24:51.267Z,68.20
2018-08-28T00:27:21.556Z,68.10
2018-08-28T00:29:51.846Z,68.00
2018-08-28T00:32:22.133Z,67.80
2018-08-28T00:34:52.433Z,67.70
2018-08-28T00:37:22.708Z,67.70
2018-08-28T00:39:53.024Z,67.60
2018-08-28T00:42:23.337Z,67.60
2018-08-28T00:44:53.637Z,67.60
2018-08-28T00:47:23.909Z,67.60
2018-08-28T00:49:54.204Z,67.60
2018-08-28T00:52:24.550Z,67.60
2018-08-28T00:54:54.986Z,67.60
2018-08-28T00:57:25.267Z,67.40
2018-08-28T00:59:55.831Z,67.40
2018-08-28T01:02:26.167Z,67.30
2018-08-28T01:04:56.498Z,67.20
2018-08-28T01:07:26.810Z,67.20
2018-08-28T01:09:57.141Z,67.20
2018-08-28T01:12:27.463Z,67.30
2018-08-28T01:14:57.794Z,67.30
2018-08-28T01:17:28.113Z,67.40
2018-08-28T01:19:58.460Z,67.30
2018-08-28T01:22:29.309Z,67.40
2018-08-28T01:24:59.720Z,67.20
2018-08-28T01:27:30.039Z,67.30
2018-08-28T01:30:00.361Z,67.30
2018-08-28T01:32:30.884Z,67.20
2018-08-28T01:35:01.227Z,67.40
2018-08-28T01:37:31.549Z,67.20
2018-08-28T01:40:01.896Z,67.20
2018-08-28T01:42:32.456Z,67.10
2018-08-28T01:45:02.827Z,66.90
2018-08-28T01:47:33.138Z,66.70
2018-08-28T01:50:03.473Z,66.70
2018-08-28T01:52:33.773Z,66.90
2018-08-28T01:55:04.081Z,66.80
2018-08-28T01:57:34.356Z,66.80
2018-08-28T02:00:04.719Z,66.90
2018-08-28T02:02:35.080Z,66.80
2018-08-28T02:05:05.561Z,66.70
2018-08-28T02:07:36.157Z,66.60
2018-08-28T02:10:07.063Z,66.70
2018-08-28T02:12:37.401Z,66.70
2018-08-28T02:15:07.786Z,66.70
2018-08-28T02:17:38.397Z,66.70
2018-08-28T02:20:08.768Z,66.70
2018-08-28T02:22:39.102Z,66.80
2018-08-28T02:25:09.409Z,66.80
2018-08-28T02:27:39.744Z,66.70
2018-08-28T02:30:10.308Z,66.70
2018-08-28T02:32:40.905Z,67.00
2018-08-28T02:35:11.225Z,66.80
2018-08-28T02:37:41.565Z,66.80
2018-08-28T02:40:11.881Z,66.60
2018-08-28T02:42:42.261Z,66.60
2018-08-28T02:45:12.993Z,66.60
2018-08-28T02:47:43.326Z,66.60
2018-08-28T02:50:13.633Z,66.50
2018-08-28T02:52:43.972Z,66.70
2018-08-28T02:55:14.272Z,66.80
2018-08-28T02:57:44.604Z,66.90
2018-08-28T03:00:14.917Z,66.90
2018-08-28T03:02:45.317Z,67.00
2018-08-28T03:05:15.772Z,67.10
2018-08-28T03:07:46.116Z,67.10
2018-08-28T03:10:16.656Z,67.00
2018-08-28T03:12:47.000Z,67.60
2018-08-28T03:15:17.341Z,66.60
2018-08-28T03:17:47.686Z,66.60
2018-08-28T03:20:17.997Z,66.50
2018-08-28T03:22:48.597Z,66.50
2018-08-28T03:25:19.234Z,66.40
2018-08-28T03:27:49.737Z,66.50
2018-08-28T03:30:20.065Z,66.50
2018-08-28T03:32:50.425Z,66.50
2018-08-28T03:35:20.756Z,66.50
2018-08-28T03:37:51.353Z,66.60
2018-08-28T03:40:21.677Z,66.50
2018-08-28T03:42:52.287Z,66.40
2018-08-28T03:45:22.656Z,66.50
2018-08-28T03:47:52.988Z,66.50
2018-08-28T03:50:23.305Z,66.40
2018-08-28T03:52:53.939Z,66.40
2018-08-28T03:55:24.461Z,66.40
2018-08-28T03:57:54.964Z,66.30
2018-08-28T04:00:25.530Z,66.20
2018-08-28T04:02:55.884Z,66.20
2018-08-28T04:05:26.201Z,66.10
2018-08-28T04:07:56.749Z,66.90
2018-08-28T04:10:27.982Z,66.10
2018-08-28T04:12:58.569Z,66.40
2018-08-28T04:15:28.887Z,66.20
2018-08-28T04:17:59.245Z,66.40
2018-08-28T04:20:29.817Z,66.30
2018-08-28T04:23:00.160Z,66.40
2018-08-28T04:25:37.140Z,66.40
2018-08-28T04:28:07.486Z,66.40
2018-08-28T04:30:37.953Z,66.30
2018-08-28T04:33:08.380Z,66.20
2018-08-28T04:35:38.953Z,66.20
2018-08-28T04:38:09.561Z,66.20
2018-08-28T04:40:39.888Z,66.80
2018-08-28T04:43:10.221Z,66.00
2018-08-28T04:45:41.022Z,66.20
2018-08-28T04:48:11.398Z,66.20
2018-08-28T04:50:41.728Z,66.30
2018-08-28T04:53:12.071Z,66.30
2018-08-28T04:55:42.389Z,66.30
2018-08-28T04:58:12.736Z,66.30
2018-08-28T05:00:43.115Z,66.20
2018-08-28T05:03:13.594Z,66.80
2018-08-28T05:05:43.884Z,66.50
2018-08-28T05:08:14.426Z,66.70
2018-08-28T05:10:44.718Z,66.80
2018-08-28T05:13:15.027Z,66.80
2018-08-28T05:15:45.602Z,66.80
2018-08-28T05:18:16.060Z,66.80
2018-08-28T05:20:46.590Z,66.80
2018-08-28T05:23:17.166Z,66.90
2018-08-28T05:25:47.461Z,66.80
2018-08-28T05:28:18.056Z,66.90
2018-08-28T05:30:48.613Z,67.10
2018-08-28T05:33:19.178Z,67.20
2018-08-28T05:35:49.712Z,67.40
2018-08-28T05:38:20.014Z,67.60
2018-08-28T05:40:50.292Z,67.70
2018-08-28T05:43:20.600Z,67.90
2018-08-28T05:45:50.904Z,67.80
2018-08-28T05:48:21.224Z,67.50
2018-08-28T05:50:51.759Z,67.60
2018-08-28T05:53:22.085Z,67.80
2018-08-28T05:55:52.381Z,68.20
2018-08-28T05:58:22.889Z,68.00
2018-08-28T06:00:53.160Z,67.90
2018-08-28T06:03:23.721Z,67.90
2018-08-28T06:05:54.066Z,67.80
2018-08-28T06:08:24.422Z,67.90
2018-08-28T06:10:54.733Z,68.20
2018-08-28T06:13:25.740Z,67.90
2018-08-28T06:15:56.044Z,68.00
2018-08-28T06:18:26.668Z,67.90
2018-08-28T06:20:56.993Z,68.00
2018-08-28T06:23:27.360Z,68.20
2018-08-28T06:25:57.892Z,68.50
2018-08-28T06:28:28.200Z,68.60
2018-08-28T06:30:58.504Z,68.70
2018-08-28T06:33:28.827Z,68.60
2018-08-28T06:35:59.377Z,68.50
2018-08-28T06:38:29.936Z,68.60
2018-08-28T06:41:00.312Z,68.70
2018-08-28T06:43:30.714Z,68.80
2018-08-28T06:46:01.501Z,68.90
2018-08-28T06:48:31.881Z,69.00
2018-08-28T06:51:02.582Z,69.00
2018-08-28T06:53:33.041Z,69.00
2018-08-28T06:56:03.340Z,69.00
2018-08-28T06:58:33.652Z,68.90
2018-08-28T07:01:03.949Z,68.50
2018-08-28T07:03:34.378Z,68.10
2018-08-28T07:06:06.849Z,68.40
2018-08-28T07:08:40.363Z,68.60
2018-08-28T07:11:12.135Z,68.40
2018-08-28T07:13:43.859Z,68.20
2018-08-28T07:16:16.290Z,67.90
2018-08-28T07:18:46.877Z,68.00
2018-08-28T07:21:17.692Z,68.40
2018-08-28T07:23:48.002Z,68.90
2018-08-28T07:26:18.344Z,67.70
2018-08-28T07:28:48.636Z,67.70
2018-08-28T07:31:19.697Z,68.40
2018-08-28T07:33:51.245Z,67.40
2018-08-28T07:36:23.104Z,67.30
2018-08-28T07:38:54.554Z,67.20
2018-08-28T07:41:25.846Z,66.50
2018-08-28T07:43:56.936Z,66.30
2018-08-28T07:46:27.804Z,66.60
2018-08-28T07:48:58.340Z,65.90
2018-08-28T07:51:28.766Z,65.50
2018-08-28T07:53:59.667Z,65.10
2018-08-28T07:56:30.110Z,64.70
2018-08-28T07:59:00.412Z,64.60
2018-08-28T08:01:31.401Z,65.00
2018-08-28T08:04:02.182Z,63.90
2018-08-28T08:06:34.134Z,63.60
2018-08-28T08:09:08.185Z,63.30
2018-08-28T08:11:38.874Z,63.20
2018-08-28T08:14:09.380Z,62.40
2018-08-28T08:16:40.246Z,62.00
2018-08-28T08:19:10.992Z,61.80
2018-08-28T08:21:41.956Z,61.40
2018-08-28T08:24:12.765Z,60.40
2018-08-28T08:26:43.749Z,59.30
2018-08-28T08:29:14.149Z,59.10
2018-08-28T08:31:44.845Z,58.90
2018-08-28T08:34:15.858Z,58.50
2018-08-28T08:36:46.473Z,59.10
2018-08-28T08:39:17.000Z,58.40
2018-08-28T08:41:48.026Z,58.30
2018-08-28T08:44:18.964Z,58.10
2018-08-28T08:46:49.393Z,58.50
2018-08-28T08:49:20.078Z,58.50
2018-08-28T08:51:50.576Z,58.30
2018-08-28T08:54:21.072Z,58.00
2018-08-28T08:56:51.450Z,57.00
2018-08-28T08:59:22.219Z,57.00
2018-08-28T09:01:56.172Z,57.40
2018-08-28T09:04:26.518Z,56.50
2018-08-28T09:06:57.428Z,56.00
2018-08-28T09:09:27.828Z,55.60
2018-08-28T09:11:58.498Z,55.10
2018-08-28T09:14:29.181Z,55.50
2018-08-28T09:16:59.944Z,55.40
2018-08-28T09:19:30.646Z,55.40
2018-08-28T09:22:01.245Z,55.30
2018-08-28T09:24:31.766Z,55.50
2018-08-28T09:27:02.160Z,55.30
2018-08-28T09:29:32.572Z,55.30
2018-08-28T09:32:09.681Z,55.00
2018-08-28T09:34:40.261Z,54.70
2018-08-28T09:37:10.995Z,54.40
2018-08-28T09:39:41.505Z,54.20
2018-08-28T09:42:11.925Z,53.60
2018-08-28T09:44:42.426Z,53.90
2018-08-28T09:47:12.833Z,53.70
2018-08-28T09:49:43.283Z,53.70
2018-08-28T09:52:13.663Z,53.60
2018-08-28T09:54:44.006Z,53.70
2018-08-28T09:57:14.441Z,53.70
2018-08-28T09:59:45.180Z,53.40
2018-08-28T10:02:16.031Z,53.10
2018-08-28T10:04:46.441Z,53.30
2018-08-28T10:07:17.040Z,52.40
2018-08-28T10:09:48.671Z,52.40
2018-08-28T10:12:19.520Z,51.60
2018-08-28T10:14:50.260Z,51.70
2018-08-28T10:17:21.085Z,52.00
2018-08-28T10:19:52.104Z,51.20
2018-08-28T10:22:23.077Z,51.30
2018-08-28T10:24:53.884Z,51.50
2018-08-28T10:27:24.282Z,51.30
2018-08-28T10:29:56.032Z,51.10
2018-08-28T10:32:27.084Z,51.30
2018-08-28T10:34:57.521Z,50.30
2018-08-28T10:37:33.415Z,50.50
2018-08-28T10:40:03.845Z,50.60
2018-08-28T10:42:34.258Z,50.10
2018-08-28T10:45:04.634Z,49.30
2018-08-28T10:47:35.049Z,49.20
2018-08-28T10:50:05.510Z,49.80
2018-08-28T10:52:35.987Z,50.30
2018-08-28T10:55:06.699Z,50.00
2018-08-28T10:57:37.148Z,50.00
2018-08-28T11:00:07.873Z,49.60
2018-08-28T11:02:38.358Z,49.40
2018-08-28T11:05:08.880Z,48.80
2018-08-28T11:07:45.081Z,48.40
2018-08-28T11:10:15.498Z,48.80
2018-08-28T11:12:46.099Z,49.00
2018-08-28T11:15:16.833Z,48.60
2018-08-28T11:17:48.122Z,48.80
2018-08-28T11:20:18.826Z,49.10
2018-08-28T11:22:49.342Z,48.70
2018-08-28T11:25:20.364Z,48.40
2018-08-28T11:27:51.314Z,48.50
2018-08-28T11:30:22.878Z,49.00
2018-08-28T11:32:54.130Z,49.30
2018-08-28T11:35:26.053Z,49.00
2018-08-28T11:37:57.957Z,48.30
2018-08-28T11:40:34.574Z,48.20
2018-08-28T11:43:06.237Z,48.20
2018-08-28T11:45:42.034Z,47.80
2018-08-28T11:48:13.178Z,47.90
2018-08-28T11:50:46.303Z,48.00
2018-08-28T11:53:17.392Z,47.80
2018-08-28T11:55:48.715Z,47.60
2018-08-28T11:58:20.035Z,47.70
2018-08-28T12:00:57.857Z,47.90
2018-08-28T12:03:33.715Z,47.60
2018-08-28T12:06:04.858Z,46.90
2018-08-28T12:08:35.854Z,46.80
2018-08-28T12:11:08.182Z,46.70
2018-08-28T12:13:39.485Z,46.90
2018-08-28T12:16:11.575Z,47.00
2018-08-28T12:18:42.279Z,47.20
2018-08-28T12:21:12.953Z,47.40
2018-08-28T12:23:44.414Z,47.60
2018-08-28T12:27:40.451Z,47.70
2018-08-28T12:30:11.975Z,47.90
2018-08-28T12:32:42.478Z,47.80
2018-08-28T12:35:12.829Z,48.00
2018-08-28T12:37:43.212Z,47.70
2018-08-28T12:40:13.604Z,47.50
2018-08-28T12:42:44.836Z,47.90
2018-08-28T12:45:22.378Z,47.60
2018-08-28T12:47:53.521Z,47.60
2018-08-28T12:50:24.048Z,47.30
2018-08-28T12:52:54.626Z,47.40
2018-08-28T12:55:30.678Z,47.90
2018-08-28T12:58:01.268Z,47.50
2018-08-28T13:00:31.933Z,47.70
2018-08-28T13:03:02.834Z,47.50
2018-08-28T13:05:33.745Z,47.50
2018-08-28T13:08:04.397Z,47.90
2018-08-28T13:10:38.061Z,47.60
2018-08-28T13:13:10.428Z,47.70
2018-08-28T13:15:40.958Z,47.40
2018-08-28T13:18:11.365Z,47.80
2018-08-28T13:20:42.019Z,47.40
2018-08-28T13:23:12.659Z,47.60
2018-08-28T13:25:43.258Z,47.60
2018-08-28T13:28:20.851Z,47.20
2018-08-28T13:30:51.319Z,47.50
2018-08-28T13:33:21.979Z,47.70
2018-08-28T13:35:52.648Z,47.70
2018-08-28T13:38:24.730Z,47.60
2018-08-28T13:40:55.265Z,47.60
2018-08-28T13:43:25.721Z,47.70
2018-08-28T13:45:56.741Z,47.70
2018-08-28T13:48:27.268Z,47.10
2018-08-28T13:50:57.922Z,46.70
2018-08-28T13:53:28.422Z,46.50
2018-08-28T13:55:59.278Z,46.20
2018-08-28T13:58:30.130Z,46.70
2018-08-28T14:01:00.755Z,46.50
2018-08-28T14:03:31.179Z,47.00
2018-08-28T14:06:01.895Z,46.50
2018-08-28T14:08:32.322Z,46.80
2018-08-28T14:11:02.738Z,46.20
2018-08-28T14:13:33.187Z,46.10
2018-08-28T14:16:10.210Z,46.00
2018-08-28T14:18:41.126Z,46.40
2018-08-28T14:21:11.723Z,47.20
2018-08-28T14:23:42.466Z,46.30
2018-08-28T14:26:19.346Z,46.80
2018-08-28T14:28:50.044Z,46.80
2018-08-28T14:31:26.905Z,46.80
2018-08-28T14:33:57.318Z,47.00
2018-08-28T14:36:27.683Z,46.90
2018-08-28T14:38:58.097Z,47.30
2018-08-28T14:41:28.453Z,46.90
2018-08-28T14:43:58.788Z,47.20
2018-08-28T14:46:29.147Z,47.10
2018-08-28T14:48:59.764Z,47.10
2018-08-28T14:54:32.566Z,47.30
2018-08-28T14:57:02.864Z,47.20
2018-08-28T14:59:33.500Z,47.50
2018-08-28T15:02:03.798Z,46.90
2018-08-28T15:04:34.164Z,46.40
2018-08-28T15:07:04.586Z,47.00
2018-08-28T15:09:35.037Z,47.00
2018-08-28T15:12:05.709Z,47.10
2018-08-28T15:14:36.259Z,46.50
2018-08-28T15:17:07.035Z,46.20
2018-08-28T15:19:37.446Z,46.70
2018-08-28T15:22:07.796Z,47.20
2018-08-28T15:24:38.713Z,47.40
2018-08-28T15:27:09.151Z,47.30
2018-08-28T15:29:39.817Z,47.40
2018-08-28T15:32:10.150Z,47.40
2018-08-28T15:34:40.737Z,47.20
2018-08-28T15:37:11.053Z,47.30
2018-08-28T15:39:41.469Z,47.60
2018-08-28T15:42:12.050Z,47.80
2018-08-28T15:44:42.405Z,47.70
2018-08-28T15:47:12.729Z,46.80
2018-08-28T15:49:43.376Z,46.20
2018-08-28T15:52:13.681Z,46.50
2018-08-28T15:54:44.044Z,46.60
2018-08-28T15:57:14.608Z,47.10
2018-08-28T15:59:44.967Z,47.10
2018-08-28T16:02:15.487Z,47.40
2018-08-28T16:04:45.878Z,47.50
2018-08-28T16:07:16.380Z,47.50
2018-08-28T16:09:46.721Z,46.50
2018-08-28T16:12:17.081Z,46.90
2018-08-28T16:14:54.112Z,47.30
2018-08-28T16:17:24.697Z,47.60
2018-08-28T16:19:55.320Z,47.60
2018-08-28T16:22:29.762Z,47.70
2018-08-28T16:25:00.361Z,47.70
2018-08-28T16:27:30.673Z,47.90
2018-08-28T16:30:01.050Z,48.30
2018-08-28T16:32:31.365Z,48.60
2018-08-28T16:35:01.740Z,48.60
2018-08-28T16:37:32.380Z,48.80
2018-08-28T16:40:03.043Z,48.70
2018-08-28T16:42:33.377Z,49.10
2018-08-28T16:45:03.748Z,49.20
2018-08-28T16:47:34.154Z,49.30
2018-08-28T16:50:04.582Z,49.50
2018-08-28T16:52:35.091Z,49.50
2018-08-28T16:55:05.697Z,50.20
2018-08-28T16:57:36.036Z,49.60
2018-08-28T17:00:10.142Z,49.60
2018-08-28T17:02:40.945Z,49.90
2018-08-28T17:05:11.571Z,50.00
2018-08-28T17:07:41.908Z,50.10
2018-08-28T17:10:12.524Z,50.10
2018-08-28T17:12:42.850Z,50.30
2018-08-28T17:15:13.233Z,50.50
2018-08-28T17:17:43.802Z,50.60
2018-08-28T17:20:14.142Z,50.60
2018-08-28T17:22:51.326Z,50.70
2018-08-28T17:25:21.868Z,50.80
2018-08-28T17:27:52.838Z,50.70
2018-08-28T17:30:23.633Z,50.70
2018-08-28T17:32:54.064Z,50.70
2018-08-28T17:35:24.385Z,50.70
2018-08-28T17:37:54.689Z,50.70
2018-08-28T17:40:25.034Z,50.80
2018-08-28T17:42:55.361Z,50.90
2018-08-28T17:45:25.716Z,51.00
2018-08-28T17:47:56.095Z,51.10
2018-08-28T17:50:26.421Z,51.00
2018-08-28T17:52:56.784Z,51.40
2018-08-28T17:55:27.337Z,51.50
2018-08-28T17:58:03.940Z,51.10
2018-08-28T18:00:34.257Z,50.60
2018-08-28T18:03:04.874Z,50.80
2018-08-28T18:05:35.173Z,51.00
2018-08-28T18:08:05.844Z,51.20
2018-08-28T18:10:36.426Z,51.30
2018-08-28T18:13:06.972Z,51.30
2018-08-28T18:15:37.549Z,51.30
2018-08-28T18:18:08.155Z,51.30
2018-08-28T18:20:38.513Z,51.40
2018-08-28T18:23:08.905Z,51.40
2018-08-28T18:25:39.288Z,51.60
2018-08-28T18:28:09.927Z,51.80
2018-08-28T18:30:40.247Z,51.80
2018-08-28T18:33:10.609Z,51.90
2018-08-28T18:35:40.953Z,51.90
2018-08-28T18:38:11.569Z,52.00
2018-08-28T18:40:41.923Z,52.00
2018-08-28T18:43:12.289Z,52.00
2018-08-28T18:45:43.313Z,52.00
2018-08-28T18:48:13.689Z,52.20
2018-08-28T18:50:44.029Z,52.20
2018-08-28T18:53:14.377Z,52.40
2018-08-28T18:55:44.745Z,52.50
2018-08-28T19:01:03.031Z,52.50
2018-08-28T19:03:33.434Z,52.60
2018-08-28T19:06:03.756Z,52.60
2018-08-28T19:08:34.361Z,53.30
2018-08-28T19:11:05.014Z,52.80
2018-08-28T19:13:35.621Z,52.90
2018-08-28T19:16:05.964Z,53.00
2018-08-28T19:18:36.321Z,53.00
2018-08-28T19:21:13.029Z,53.10
2018-08-28T19:23:43.381Z,53.10
2018-08-28T19:26:13.681Z,53.10
2018-08-28T19:28:43.988Z,53.00
2018-08-28T19:31:14.535Z,53.30
2018-08-28T19:33:44.908Z,53.50
2018-08-28T19:36:15.211Z,53.70
2018-08-28T19:38:45.621Z,53.90
2018-08-28T19:41:15.933Z,54.00
2018-08-28T19:43:46.294Z,54.10
2018-08-28T19:46:16.654Z,54.00
2018-08-28T19:48:47.504Z,54.00
2018-08-28T19:51:17.849Z,53.80
2018-08-28T19:53:48.360Z,54.00
2018-08-28T19:56:18.844Z,54.30
2018-08-28T19:58:49.165Z,54.20
2018-08-28T20:01:19.444Z,54.20
2018-08-28T20:03:50.053Z,54.30
2018-08-28T20:06:20.524Z,54.20
2018-08-28T20:08:50.847Z,54.40
2018-08-28T20:11:21.409Z,54.40
2018-08-28T20:13:51.761Z,54.10
2018-08-28T20:16:22.065Z,54.20
2018-08-28T20:18:52.385Z,54.20
2018-08-28T20:21:22.743Z,54.20
2018-08-28T20:23:53.090Z,54.40
2018-08-28T20:26:23.669Z,54.60
2018-08-28T20:28:54.085Z,54.50
2018-08-28T20:31:24.432Z,54.50
2018-08-28T20:33:55.037Z,54.60
2018-08-28T20:36:25.365Z,54.50
2018-08-28T20:38:55.738Z,54.70
2018-08-28T20:41:26.092Z,54.80
2018-08-28T20:43:56.457Z,55.00
2018-08-28T20:46:27.469Z,55.00
2018-08-28T20:48:57.902Z,54.90
2018-08-28T20:51:28.248Z,54.90
2018-08-28T20:53:58.861Z,55.00
2018-08-28T20:56:29.185Z,55.20
2018-08-28T20:58:59.777Z,55.20
2018-08-28T21:01:30.099Z,55.40
2018-08-28T21:04:00.957Z,55.60
2018-08-28T21:06:31.333Z,55.70
2018-08-28T21:09:02.061Z,55.80
2018-08-28T21:11:32.381Z,56.10
2018-08-28T21:14:02.993Z,56.00
2018-08-28T21:16:33.302Z,55.90
2018-08-28T21:19:03.957Z,56.10
2018-08-28T21:21:34.261Z,56.00
2018-08-28T21:24:04.810Z,56.00
2018-08-28T21:26:35.361Z,56.00
2018-08-28T21:29:05.724Z,56.10
2018-08-28T21:31:36.181Z,56.10
2018-08-28T21:34:06.508Z,56.20
2018-08-28T21:36:36.793Z,56.20
2018-08-28T21:39:07.495Z,56.10
2018-08-28T21:41:37.773Z,56.30
2018-08-28T21:44:08.097Z,56.30
2018-08-28T21:46:38.392Z,56.20
2018-08-28T21:49:08.693Z,56.80
2018-08-28T21:51:38.996Z,56.00
2018-08-28T21:54:09.302Z,56.10
2018-08-28T21:56:39.837Z,56.00
2018-08-28T21:59:10.420Z,56.20
2018-08-28T22:01:40.705Z,56.30
2018-08-28T22:04:11.256Z,56.50
2018-08-28T22:06:46.920Z,56.90
2018-08-28T22:09:17.671Z,56.20
2018-08-28T22:11:47.965Z,56.20
2018-08-28T22:14:18.271Z,56.40
2018-08-28T22:16:48.560Z,56.20
2018-08-28T22:19:19.169Z,56.20
2018-08-28T22:21:49.408Z,56.20
2018-08-28T22:24:19.676Z,56.40
2018-08-28T22:26:49.921Z,56.30
2018-08-28T22:29:20.443Z,57.10
2018-08-28T22:31:50.706Z,56.60
2018-08-28T22:34:20.976Z,56.50
2018-08-28T22:36:51.226Z,56.60
2018-08-28T22:39:21.725Z,56.80
2018-08-28T22:41:51.982Z,57.00
2018-08-28T22:44:22.504Z,57.00
2018-08-28T22:46:52.744Z,57.20
2018-08-28T22:49:23.018Z,57.30
2018-08-28T22:51:53.263Z,57.00
2018-08-28T22:54:23.541Z,57.00
2018-08-28T22:56:53.786Z,57.40
2018-08-28T22:59:24.065Z,57.10
2018-08-28T23:01:54.565Z,57.00
2018-08-28T23:04:24.828Z,57.20
2018-08-28T23:06:55.081Z,57.20
2018-08-28T23:09:25.608Z,57.20
2018-08-28T23:11:56.133Z,57.10
2018-08-28T23:14:26.645Z,57.20
2018-08-28T23:16:56.901Z,57.40
2018-08-28T23:19:27.447Z,57.60
2018-08-28T23:21:57.700Z,57.40
2018-08-28T23:24:27.961Z,57.30
2018-08-28T23:26:58.207Z,57.60
2018-08-28T23:29:28.465Z,58.40
2018-08-28T23:31:58.707Z,57.70
2018-08-28T23:34:28.965Z,57.80
2018-08-28T23:36:59.461Z,58.60
2018-08-28T23:39:30.020Z,57.90
2018-08-28T23:42:00.545Z,57.90
2018-08-28T23:44:30.811Z,57.80
2018-08-28T23:47:01.296Z,57.80
2018-08-28T23:49:31.564Z,57.70
2018-08-28T23:52:01.817Z,57.80
2018-08-28T23:54:32.070Z,57.60
2018-08-28T23:57:02.339Z,58.60
2018-08-28T23:59:32.613Z,57.80
